createdAt,value
2023-03-07T00:01:53.488Z,23.67
2023-03-07T00:04:58.161Z,19.85
2023-03-07T00:08:02.433Z,30.50
2023-03-07T00:11:09.405Z,13.82
2023-03-07T00:14:13.625Z,21.90
2023-03-07T00:17:18.450Z,16.08
2023-03-07T00:20:23.004Z,15.33
2023-03-07T00:23:27.605Z,17.33
2023-03-07T00:26:32.371Z,17.20
2023-03-07T00:29:36.833Z,17.75
2023-03-07T00:32:41.317Z,19.73
2023-03-07T00:35:45.627Z,17.75
2023-03-07T00:38:50.907Z,26.25
2023-03-07T00:41:55.441Z,22.02
2023-03-07T00:44:59.677Z,20.27
2023-03-07T00:48:04.358Z,20.63
2023-03-07T00:51:12.058Z,20.15
2023-03-07T00:54:17.126Z,19.77
2023-03-07T00:57:21.424Z,19.30
2023-03-07T01:00:25.810Z,26.02
2023-03-07T01:03:31.082Z,29.63
2023-03-07T01:06:36.697Z,28.35
2023-03-07T01:12:48.425Z,28.80
2023-03-07T01:15:52.833Z,29.17
2023-03-07T01:19:00.387Z,27.35
2023-03-07T01:22:08.371Z,32.42
2023-03-07T01:25:13.930Z,31.77
2023-03-07T01:28:18.165Z,32.13
2023-03-07T01:31:23.019Z,31.23
2023-03-07T01:34:27.477Z,31.85
2023-03-07T01:37:31.871Z,30.63
2023-03-07T01:40:36.233Z,31.88
2023-03-07T01:43:41.001Z,29.98
2023-03-07T01:46:56.668Z,28.67
2023-03-07T01:50:21.117Z,26.05
2023-03-07T01:53:25.009Z,22.50
2023-03-07T01:56:29.867Z,21.23
2023-03-07T01:59:38.085Z,21.80
2023-03-07T02:02:45.752Z,22.20
2023-03-07T02:05:59.808Z,19.58
2023-03-07T02:09:04.993Z,18.42
2023-03-07T02:12:10.085Z,15.95
2023-03-07T02:15:16.152Z,17.25
2023-03-07T02:18:25.197Z,17.20
2023-03-07T02:21:47.315Z,14.50
2023-03-07T02:24:54.909Z,15.35
2023-03-07T02:28:00.462Z,11.27
2023-03-07T02:31:08.522Z,11.48
2023-03-07T02:34:29.822Z,11.70
2023-03-07T02:37:48.696Z,10.55
2023-03-07T02:40:56.675Z,11.40
2023-03-07T02:44:01.243Z,10.32
2023-03-07T02:47:09.777Z,9.30
2023-03-07T02:50:16.253Z,8.95
2023-03-07T02:53:23.317Z,8.00
2023-03-07T02:56:27.236Z,7.20
2023-03-07T02:59:31.897Z,7.88
2023-03-07T03:02:36.424Z,7.43
2023-03-07T03:05:40.548Z,7.10
2023-03-07T03:08:45.071Z,8.93
2023-03-07T03:11:49.427Z,16.90
2023-03-07T03:14:57.141Z,13.55
2023-03-07T03:18:01.808Z,63.67
2023-03-07T03:21:12.077Z,9.48
2023-03-07T03:24:16.775Z,7.97
2023-03-07T03:27:23.167Z,6.35
2023-03-07T03:30:33.133Z,5.78
2023-03-07T03:33:40.042Z,5.68
2023-03-07T03:36:44.654Z,6.13
2023-03-07T03:39:48.765Z,5.55
2023-03-07T03:42:53.039Z,6.40
2023-03-07T03:45:59.817Z,5.38
2023-03-07T03:49:06.200Z,6.05
2023-03-07T03:52:11.514Z,5.15
2023-03-07T03:55:16.439Z,4.85
2023-03-07T03:58:20.927Z,4.00
2023-03-07T04:01:27.954Z,3.90
2023-03-07T04:04:35.589Z,3.47
2023-03-07T04:07:40.479Z,4.75
2023-03-07T04:10:45.299Z,4.43
2023-03-07T04:13:50.213Z,4.25
2023-03-07T04:16:54.964Z,5.70
2023-03-07T04:19:59.404Z,5.70
2023-03-07T04:23:04.113Z,8.32
2023-03-07T04:26:10.338Z,6.35
2023-03-07T04:29:15.610Z,3.45
2023-03-07T04:32:27.973Z,5.75
2023-03-07T04:35:32.767Z,4.38
2023-03-07T04:38:39.785Z,4.57
2023-03-07T04:41:43.753Z,4.70
2023-03-07T04:44:59.438Z,4.38
2023-03-07T04:48:04.303Z,4.78
2023-03-07T04:51:10.624Z,3.80
2023-03-07T04:54:15.108Z,3.60
2023-03-07T04:57:21.828Z,6.07
2023-03-07T05:00:26.250Z,8.32
2023-03-07T05:03:31.539Z,6.07
2023-03-07T05:09:40.791Z,7.80
2023-03-07T05:12:45.393Z,5.82
2023-03-07T05:15:58.160Z,3.55
2023-03-07T05:19:05.932Z,5.22
2023-03-07T05:22:10.535Z,5.25
2023-03-07T05:25:15.442Z,10.27
2023-03-07T05:31:25.307Z,5.65
2023-03-07T05:34:29.732Z,3.85
2023-03-07T05:37:34.769Z,4.22
2023-03-07T05:40:39.787Z,6.53
2023-03-07T05:43:44.813Z,4.97
2023-03-07T05:46:48.937Z,3.40
2023-03-07T05:49:53.458Z,2.97
2023-03-07T05:52:57.890Z,4.55
2023-03-07T05:56:06.414Z,4.97
2023-03-07T05:59:16.311Z,3.80
2023-03-07T06:02:22.346Z,4.20
2023-03-07T06:05:27.029Z,3.17
2023-03-07T06:08:31.514Z,3.50
2023-03-07T06:11:36.315Z,3.88
2023-03-07T06:14:40.820Z,4.35
2023-03-07T06:17:45.359Z,3.65
2023-03-07T06:21:00.567Z,4.60
2023-03-07T06:24:08.721Z,4.35
2023-03-07T06:27:13.588Z,3.60
2023-03-07T06:30:24.287Z,3.38
2023-03-07T06:33:28.827Z,4.40
2023-03-07T06:36:36.664Z,5.25
2023-03-07T06:39:44.392Z,6.05
2023-03-07T06:42:49.316Z,5.45
2023-03-07T06:46:01.618Z,5.75
2023-03-07T06:49:11.398Z,6.82
2023-03-07T06:52:19.143Z,6.78
2023-03-07T06:55:25.796Z,9.75
2023-03-07T06:58:33.425Z,10.40
2023-03-07T07:01:41.505Z,8.82
2023-03-07T07:04:47.756Z,7.30
2023-03-07T07:07:52.944Z,7.45
2023-03-07T07:11:00.359Z,9.23
2023-03-07T07:14:08.919Z,7.00
2023-03-07T07:17:21.150Z,6.70
2023-03-07T07:20:29.393Z,8.05
2023-03-07T07:23:41.376Z,7.75
2023-03-07T07:26:46.514Z,7.68
2023-03-07T07:29:51.212Z,7.13
2023-03-07T07:32:56.153Z,8.65
2023-03-07T07:36:03.226Z,8.77
2023-03-07T07:39:08.651Z,12.07
2023-03-07T07:42:15.204Z,15.95
2023-03-07T07:45:36.830Z,18.83
2023-03-07T07:48:43.425Z,14.00
2023-03-07T07:51:48.544Z,12.43
2023-03-07T07:54:53.293Z,10.02
2023-03-07T07:58:00.753Z,11.52
2023-03-07T08:01:23.464Z,12.13
2023-03-07T08:04:27.800Z,11.95
2023-03-07T08:07:34.885Z,13.35
2023-03-07T08:10:44.019Z,12.27
2023-03-07T08:13:51.545Z,10.55
2023-03-07T08:16:55.875Z,10.07
2023-03-07T08:20:09.224Z,9.93
2023-03-07T08:23:15.278Z,9.52
2023-03-07T08:26:22.640Z,9.10
2023-03-07T08:29:30.303Z,9.90
2023-03-07T08:32:37.803Z,16.20
2023-03-07T08:35:42.502Z,22.75
2023-03-07T08:38:53.416Z,17.55
2023-03-07T08:41:57.792Z,18.50
2023-03-07T08:45:02.124Z,23.98
2023-03-07T08:48:07.099Z,27.70
2023-03-07T08:51:15.829Z,26.25
2023-03-07T08:54:20.235Z,24.52
2023-03-07T08:57:26.415Z,30.92
2023-03-07T09:00:30.999Z,28.83
2023-03-07T09:03:36.797Z,29.67
2023-03-07T09:06:42.959Z,39.42
2023-03-07T09:09:48.727Z,42.17
2023-03-07T09:15:57.588Z,23.95
2023-03-07T09:19:02.512Z,20.90
2023-03-07T09:22:06.794Z,13.33
2023-03-07T09:25:12.241Z,11.75
2023-03-07T09:28:16.614Z,11.40
2023-03-07T09:31:21.170Z,16.80
2023-03-07T09:34:25.261Z,23.33
2023-03-07T09:37:29.864Z,9.80
2023-03-07T09:40:34.647Z,16.70
2023-03-07T09:43:52.890Z,11.07
2023-03-07T09:47:26.795Z,9.98
2023-03-07T09:50:53.130Z,7.97
2023-03-07T09:54:21.158Z,8.68
2023-03-07T09:57:55.662Z,10.13
2023-03-07T10:01:02.425Z,8.95
2023-03-07T10:07:44.737Z,14.18
2023-03-07T10:11:14.703Z,12.73
2023-03-07T10:14:42.373Z,14.30
2023-03-07T10:18:05.762Z,15.07
2023-03-07T10:21:50.117Z,14.43
2023-03-07T10:25:24.576Z,19.27
2023-03-07T10:28:33.264Z,21.08
2023-03-07T10:31:43.511Z,16.67
2023-03-07T10:34:52.820Z,22.52
2023-03-07T10:38:25.711Z,17.55
2023-03-07T10:41:30.346Z,9.98
2023-03-07T10:44:37.403Z,10.20
2023-03-07T10:47:44.251Z,10.88
2023-03-07T10:51:25.319Z,11.75
2023-03-07T10:54:38.835Z,11.73
2023-03-07T10:57:44.020Z,11.55
2023-03-07T11:01:08.228Z,11.85
2023-03-07T11:04:25.605Z,11.80
2023-03-07T11:07:36.593Z,8.38
2023-03-07T11:10:41.459Z,9.55
2023-03-07T11:14:16.147Z,9.03
2023-03-07T11:17:42.108Z,12.55
2023-03-07T11:20:56.039Z,14.57
2023-03-07T11:24:05.720Z,12.52
2023-03-07T11:27:25.539Z,6.50
2023-03-07T11:30:42.138Z,7.03
2023-03-07T11:33:59.594Z,8.18
2023-03-07T11:37:30.310Z,6.07
2023-03-07T11:40:44.528Z,8.70
2023-03-07T11:43:54.768Z,6.30
2023-03-07T11:47:34.618Z,7.25
2023-03-07T11:50:45.482Z,7.82
2023-03-07T11:54:32.763Z,7.95
2023-03-07T11:58:18.483Z,7.72
2023-03-07T12:01:44.955Z,7.95
2023-03-07T12:08:39.839Z,6.20
2023-03-07T12:11:50.410Z,7.15
2023-03-07T12:15:03.079Z,8.73
2023-03-07T12:18:20.793Z,14.82
2023-03-07T12:21:56.122Z,8.82
2023-03-07T12:25:09.228Z,8.88
2023-03-07T12:28:51.930Z,5.97
2023-03-07T12:32:01.998Z,7.70
2023-03-07T12:35:49.684Z,7.57
2023-03-07T12:39:05.931Z,6.65
2023-03-07T12:42:36.146Z,8.50
2023-03-07T12:46:20.598Z,11.43
2023-03-07T12:49:49.740Z,8.98
2023-03-07T12:53:23.225Z,15.55
2023-03-07T12:56:37.406Z,10.85
2023-03-07T12:59:44.570Z,16.67
2023-03-07T13:03:00.631Z,24.02
2023-03-07T13:06:05.481Z,10.02
2023-03-07T13:09:14.992Z,9.88
2023-03-07T13:12:22.572Z,15.15
2023-03-07T13:15:28.098Z,18.20
2023-03-07T13:18:33.957Z,19.10
2023-03-07T13:21:37.841Z,12.57
2023-03-07T13:24:42.391Z,9.48
2023-03-07T13:28:07.118Z,8.80
2023-03-07T13:31:27.494Z,9.05
2023-03-07T13:34:48.480Z,9.60
2023-03-07T13:37:54.210Z,13.15
2023-03-07T13:41:03.392Z,16.35
2023-03-07T13:44:29.599Z,7.82
2023-03-07T13:47:46.541Z,7.78
2023-03-07T13:50:50.449Z,8.27
2023-03-07T13:54:14.758Z,6.65
2023-03-07T13:57:21.828Z,7.65
2023-03-07T14:00:33.119Z,10.13
2023-03-07T14:03:41.688Z,7.05
2023-03-07T14:06:52.980Z,6.93
2023-03-07T14:10:19.546Z,6.95
2023-03-07T14:13:37.417Z,17.25
2023-03-07T14:17:19.779Z,6.80
2023-03-07T14:20:32.774Z,6.75
2023-03-07T14:23:48.001Z,13.25
2023-03-07T14:26:57.594Z,7.83
2023-03-07T14:30:01.566Z,29.33
2023-03-07T14:33:07.086Z,9.25
2023-03-07T14:36:27.416Z,7.22
2023-03-07T14:39:57.801Z,6.60
2023-03-07T14:43:41.695Z,8.52
2023-03-07T14:46:54.773Z,6.20
2023-03-07T14:50:19.662Z,7.43
2023-03-07T14:53:27.257Z,6.53
2023-03-07T14:56:33.805Z,6.00
2023-03-07T14:59:37.725Z,6.50
2023-03-07T15:02:55.466Z,3.63
2023-03-07T15:06:01.795Z,6.43
2023-03-07T15:09:11.816Z,7.05
2023-03-07T15:12:23.794Z,9.07
2023-03-07T15:15:36.861Z,5.38
2023-03-07T15:18:52.254Z,3.78
2023-03-07T15:22:00.603Z,8.70
2023-03-07T15:25:05.031Z,5.60
2023-03-07T15:28:22.203Z,6.25
2023-03-07T15:31:31.209Z,4.85
2023-03-07T15:34:38.837Z,3.65
2023-03-07T15:37:56.866Z,3.10
2023-03-07T15:41:01.575Z,4.03
2023-03-07T15:44:19.695Z,5.27
2023-03-07T15:47:24.913Z,8.25
2023-03-07T15:50:30.531Z,6.82
2023-03-07T15:53:38.482Z,5.20
2023-03-07T15:56:42.485Z,5.35
2023-03-07T15:59:58.130Z,5.97
2023-03-07T16:03:28.481Z,6.83
2023-03-07T16:06:44.176Z,4.47
2023-03-07T16:09:51.323Z,4.05
2023-03-07T16:12:55.701Z,6.03
2023-03-07T16:16:26.827Z,3.33
2023-03-07T16:19:31.660Z,3.72
2023-03-07T16:22:36.530Z,5.35
2023-03-07T16:25:42.983Z,5.05
2023-03-07T16:29:05.980Z,2.63
2023-03-07T17:28:14.603Z,2.40
2023-03-07T17:31:20.108Z,4.72
2023-03-07T17:34:33.602Z,2.70
2023-03-07T17:37:37.797Z,2.05
2023-03-07T17:40:41.875Z,2.00
2023-03-07T17:43:46.061Z,4.07
2023-03-07T17:46:50.616Z,2.72
2023-03-07T17:49:54.478Z,3.50
2023-03-07T17:52:59.312Z,5.72
2023-03-07T17:56:12.496Z,3.10
2023-03-07T17:59:17.111Z,3.22
2023-03-07T18:02:21.204Z,4.03
2023-03-07T18:05:26.718Z,2.60
2023-03-07T18:08:30.959Z,3.55
2023-03-07T18:11:36.172Z,2.85
2023-03-07T18:14:40.607Z,4.18
2023-03-07T18:17:48.700Z,3.13
2023-03-07T18:21:03.621Z,2.75
2023-03-07T18:24:20.068Z,3.55
2023-03-07T18:27:25.760Z,3.10
2023-03-07T18:30:30.139Z,5.03
2023-03-07T18:33:35.589Z,6.60
2023-03-07T18:36:41.943Z,11.88
2023-03-07T18:39:46.180Z,7.53
2023-03-07T18:42:50.068Z,11.07
2023-03-07T18:45:53.922Z,4.38
2023-03-07T18:49:00.011Z,5.20
2023-03-07T18:55:08.977Z,6.07
2023-03-07T18:58:13.731Z,5.55
2023-03-07T19:01:38.589Z,9.68
2023-03-07T19:04:43.570Z,10.00
2023-03-07T19:07:49.041Z,5.95
2023-03-07T19:10:52.968Z,4.80
2023-03-07T19:13:57.799Z,6.63
2023-03-07T19:17:01.838Z,3.20
2023-03-07T19:20:06.491Z,4.57
2023-03-07T19:23:10.452Z,4.25
2023-03-07T19:26:19.455Z,4.25
2023-03-07T19:29:23.323Z,4.57
2023-03-07T19:32:30.119Z,6.55
2023-03-07T19:35:34.809Z,4.00
2023-03-07T19:38:39.985Z,4.50
2023-03-07T19:41:46.361Z,4.72
2023-03-07T19:44:50.252Z,4.68
2023-03-07T19:47:56.823Z,5.82
2023-03-07T19:51:01.610Z,5.43
2023-03-07T19:54:05.606Z,4.60
2023-03-07T19:57:12.428Z,3.30
2023-03-07T20:00:16.727Z,3.13
2023-03-07T20:03:21.429Z,3.28
2023-03-07T20:06:28.820Z,3.90
2023-03-07T20:09:35.864Z,3.72
2023-03-07T20:12:39.755Z,4.00
2023-03-07T20:15:54.724Z,6.57
2023-03-07T20:19:01.165Z,8.02
2023-03-07T20:22:06.116Z,6.57
2023-03-07T20:25:10.839Z,3.20
2023-03-07T20:31:20.906Z,2.97
2023-03-07T20:34:25.502Z,3.10
2023-03-07T20:41:06.824Z,2.92
2023-03-07T20:44:14.377Z,2.72
2023-03-07T20:47:18.713Z,2.80
2023-03-07T20:50:22.647Z,2.65
2023-03-07T20:53:27.120Z,2.58
2023-03-07T20:56:33.258Z,2.58
2023-03-07T20:59:37.536Z,3.67
2023-03-07T21:02:41.548Z,4.22
2023-03-07T21:05:45.680Z,3.30
2023-03-07T21:08:50.002Z,3.33
2023-03-07T21:11:54.046Z,2.92
2023-03-07T21:14:58.000Z,2.40
2023-03-07T21:18:02.048Z,2.25
2023-03-07T21:21:08.965Z,2.35
2023-03-07T21:24:13.707Z,2.65
2023-03-07T21:27:17.454Z,3.42
2023-03-07T21:30:21.524Z,2.65
2023-03-07T21:33:25.710Z,3.40
2023-03-07T21:36:32.213Z,3.40
2023-03-07T21:39:38.763Z,2.72
2023-03-07T21:42:43.312Z,2.55
2023-03-07T21:45:47.912Z,3.58
2023-03-07T21:48:52.904Z,3.40
2023-03-07T21:51:56.825Z,3.40
2023-03-07T21:55:01.004Z,3.03
2023-03-07T21:58:06.536Z,5.97
2023-03-07T22:01:23.107Z,5.25
2023-03-07T22:07:33.191Z,4.10
2023-03-07T22:10:37.432Z,2.90
2023-03-07T22:13:44.741Z,2.08
2023-03-07T22:16:48.690Z,4.20
2023-03-07T22:19:52.728Z,3.63
2023-03-07T22:22:56.831Z,2.72
2023-03-07T22:26:26.487Z,2.58
2023-03-07T22:29:30.951Z,2.90
2023-03-07T22:32:35.315Z,2.35
2023-03-07T22:35:42.114Z,3.08
2023-03-07T22:39:08.445Z,2.60
2023-03-07T22:42:13.249Z,3.05
2023-03-07T22:45:17.661Z,3.83
2023-03-07T22:48:21.748Z,2.90
2023-03-07T22:51:27.526Z,2.22
2023-03-07T22:54:32.027Z,2.97
2023-03-07T22:57:36.375Z,4.30
2023-03-07T23:00:42.352Z,3.38
2023-03-07T23:03:46.232Z,3.67
2023-03-07T23:06:50.248Z,2.60
2023-03-07T23:09:54.283Z,3.42
2023-03-07T23:12:58.328Z,3.00
2023-03-07T23:16:16.892Z,2.05
2023-03-07T23:19:20.998Z,3.10
2023-03-07T23:22:25.232Z,5.60
2023-03-07T23:25:29.508Z,2.60
2023-03-07T23:28:34.510Z,2.85
2023-03-07T23:31:40.967Z,2.38
2023-03-07T23:34:44.880Z,2.78
2023-03-07T23:37:49.169Z,2.53
2023-03-07T23:40:53.192Z,2.63
2023-03-07T23:44:00.122Z,5.95
2023-03-07T23:47:04.056Z,2.80
2023-03-07T23:50:09.764Z,2.13
2023-03-07T23:53:13.774Z,1.95
2023-03-07T23:56:17.653Z,2.40
2023-03-07T23:59:21.667Z,2.28
